Overview Statistics Trail Chart Weather Telemetry Raw packets
 

This is the latest recevied weather packets stored in our database for station/object DL4MGC-10. If no packets are shown the sender has not sent any weather packets the latest 10 day(s).

<< 7 8 9 10 11 12 13 >>
Time Temp. Humidity Pressure Rain* Wind** Luminosity Snow
1788505049 22.22° C 69% 1020.5 hPa - - - -
1788504149 22.22° C 72% 1020.6 hPa - - - -
1788503249 21.67° C 74% 1020.5 hPa - - - -
1788502349 20.56° C 79% 1020.5 hPa - - - -
1788501449 18.33° C 86% 1020.3 hPa - - - -
1788500548 17.78° C 88% 1020.3 hPa - - - -
1788499648 17.22° C 88% 1020.5 hPa - - - -
1788498748 17.22° C 88% 1020.6 hPa - - - -
1788497848 16.67° C 91% 1020.6 hPa - - - -
1788496948 16.67° C 89% 1020.6 hPa - - - -
1788496048 16.67° C 91% 1020.7 hPa - - - -
1788495148 16.67° C 89% 1020.8 hPa - - - -
1788494248 16.67° C 91% 1020.8 hPa - - - -
1788493348 17.78° C 87% 1021 hPa - - - -
1788492447 17.78° C 84% 1021.1 hPa - - - -
1788491547 17.78° C 83% 1021.1 hPa - - - -
1788490647 17.78° C 85% 1021.2 hPa - - - -
1788489747 17.78° C 84% 1021.1 hPa - - - -
1788488847 18.33° C 83% 1021.2 hPa - - - -
1788487947 17.78° C 84% 1021.3 hPa - - - -
1788487047 18.89° C 81% 1021.2 hPa - - - -
1788486147 18.89° C 81% 1021.1 hPa - - - -
1788485247 18.89° C 78% 1021.2 hPa - - - -
1788484346 18.89° C 79% 1021.2 hPa - - - -
1788483446 18.89° C 81% 1021.4 hPa - - - -

* Rain since midnight (hover to see other rain measurements)
** Current wind speed in m/s (hover to see current wind gust speed)